Tropical Cyclones
[Index]
Main Index Home Page Stock Weather Photos Extreme Storms Discussion Storm News and Storm Chasing Reports Tropical Cyclones / Hurricanes / Typhoons Weather Data and Links Wild Fires / Bushfires Weather Observation Techniques Weather Picture Catalogue Tornado Pictures and Reports Stock Video Footage and DVDs for sale
Season 1974-1975 Tropical Cyclone TRACY Track Map
Season 1974-1975 Summaries: [BoM-AU] [JTWC-AU] [JTWC-SIO] [JTWC-SPAC] [JTWC-SH]
<<- Previous TC | BoM 1974-1975 Season | Next TC ->>

click for intensity scale information  Lat/long Grid: Show Hide

 Date Labels: Show Hide

Bureau of Meteorology Tropical Cyclone Data

Name: TRACY
Number: 534 / 197475_05

20 Dec 1974 00:00 UTC to 26 Dec 1974 00:00 UTC

    date/time    lat    long    hPa   cat  kts
1974-12-20 00    8.1   135.0   1000         25          
1974-12-20 06    8.3   134.5    998         25          
1974-12-20 12    8.6   134.0    998         25          
1974-12-20 18    8.8   133.5    995    1    30          
1974-12-21 00    9.0   133.0    992    1    35          
1974-12-21 06    9.1   132.5    990    1    40          
1974-12-21 11    9.2   132.1    988    1    45          
1974-12-21 18    9.6   131.5    985    2    50          
1974-12-21 23    9.9   131.2    982    2    60          
1974-12-22 06   10.5   130.9    980    2    65          
1974-12-22 11   10.8   130.6    975    2    70          
1974-12-22 16   11.1   130.5    970    3    75          
1974-12-22 18   11.1   130.4    970    3    75          
1974-12-22 23   11.2   130.3    965    3    80          
1974-12-23 06   11.4   130.1    955    4    90          
1974-12-23 11   11.6   129.9    955    4    90          
1974-12-23 18   11.8   129.9    955    4    90          
1974-12-23 23   11.9   129.9    950    4    95          
1974-12-24 03   12.0   130.1    950    4    95          
1974-12-24 06   12.2   130.2    950    4    95          
1974-12-24 09   12.2   130.3    950    4    95          
1974-12-24 11   12.2   130.5    950    4    95          
1974-12-24 15   12.3   130.6    950    4    95          
1974-12-24 17   12.4   130.8    950    4    95          
1974-12-24 18   12.4   130.8    950    4    95          
1974-12-24 23   12.5   131.3    980    2    60          
1974-12-25 02   12.6   131.6    990    1    45          
1974-12-25 06   12.8   132.0    994    1    35          
1974-12-25 12   13.2   132.7    996         30          
1974-12-25 18   13.6   133.4    998         25          
1974-12-26 00   14.0   134.1    998         25          
Winds are 10-min average.

Tropical cyclone tracks developed by Michael Bath using data from the Bureau of Meteorology and Google Maps.


[Australian Severe Weather index] [Copyright Notice] [Email Contacts] [Search This Site] [Privacy Policy]
Document: tropical_cyclone_tracy.htm Updated: 4 April 2018